createdAt,value
2019-02-23T00:01:20.685Z,2.83
2019-02-23T00:03:49.096Z,2.82
2019-02-23T00:06:28.985Z,2.81
2019-02-23T00:08:47.618Z,2.83
2019-02-23T00:11:16.018Z,2.83
2019-02-23T00:13:44.419Z,2.84
2019-02-23T00:16:12.822Z,2.83
2019-02-23T00:18:41.243Z,2.83
2019-02-23T00:21:09.643Z,2.80
2019-02-23T00:23:38.457Z,2.78
2019-02-23T00:26:07.239Z,2.75
2019-02-23T00:28:35.910Z,2.73
2019-02-23T00:31:07.183Z,2.72
2019-02-23T00:33:35.944Z,2.71
2019-02-23T00:36:04.340Z,2.70
2019-02-23T00:38:32.769Z,2.68
2019-02-23T00:41:01.702Z,2.67
2019-02-23T00:43:30.122Z,2.64
2019-02-23T00:45:58.499Z,2.61
2019-02-23T00:48:26.894Z,2.60
2019-02-23T00:50:55.303Z,2.59
2019-02-23T00:53:23.691Z,2.58
2019-02-23T00:55:52.107Z,2.56
2019-02-23T00:58:20.964Z,2.56
2019-02-23T01:00:49.375Z,2.55
2019-02-23T01:03:17.776Z,2.53
2019-02-23T01:05:46.515Z,2.50
2019-02-23T01:08:14.902Z,2.48
2019-02-23T01:10:43.314Z,2.47
2019-02-23T01:13:11.707Z,2.46
2019-02-23T01:15:40.125Z,2.44
2019-02-23T01:18:08.515Z,2.43
2019-02-23T01:20:36.934Z,2.40
2019-02-23T01:23:05.777Z,2.39
2019-02-23T01:25:34.186Z,2.38
2019-02-23T01:28:02.575Z,2.34
2019-02-23T01:30:30.974Z,2.32
2019-02-23T01:32:59.395Z,2.29
2019-02-23T01:35:28.082Z,2.26
2019-02-23T01:37:56.490Z,2.23
2019-02-23T01:40:25.145Z,2.20
2019-02-23T01:42:55.089Z,2.18
2019-02-23T01:45:23.483Z,2.15
2019-02-23T01:47:52.228Z,2.11
2019-02-23T01:50:20.622Z,2.08
2019-02-23T01:52:49.035Z,2.06
2019-02-23T01:55:17.767Z,2.02
2019-02-23T01:57:46.180Z,1.98
2019-02-23T02:00:15.432Z,1.95
2019-02-23T02:02:44.505Z,1.92
2019-02-23T02:05:12.985Z,1.89
2019-02-23T02:07:41.400Z,1.87
2019-02-23T02:10:10.695Z,1.82
2019-02-23T02:12:39.102Z,1.81
2019-02-23T02:15:12.681Z,1.79
2019-02-23T02:17:41.104Z,1.74
2019-02-23T02:20:11.447Z,1.71
2019-02-23T02:22:40.090Z,1.68
2019-02-23T02:25:09.157Z,1.67
2019-02-23T02:27:37.868Z,1.63
2019-02-23T02:30:09.109Z,1.60
2019-02-23T02:32:37.792Z,1.53
2019-02-23T02:35:07.986Z,1.49
2019-02-23T02:37:36.419Z,1.46
2019-02-23T02:40:06.172Z,1.41
2019-02-23T02:42:34.899Z,1.38
2019-02-23T02:45:03.300Z,1.35
2019-02-23T02:47:31.698Z,1.34
2019-02-23T02:50:00.441Z,1.32
2019-02-23T02:52:28.848Z,1.31
2019-02-23T02:54:57.267Z,1.27
2019-02-23T02:57:25.659Z,1.25
2019-02-23T02:59:54.073Z,1.24
2019-02-23T03:02:22.473Z,1.22
2019-02-23T03:04:51.230Z,1.19
2019-02-23T03:07:19.636Z,1.16
2019-02-23T03:09:48.039Z,1.13
2019-02-23T03:12:16.432Z,1.10
2019-02-23T03:14:44.854Z,1.10
2019-02-23T03:17:13.526Z,1.09
2019-02-23T03:19:42.213Z,1.06
2019-02-23T03:22:10.643Z,1.03
2019-02-23T03:24:39.050Z,1.00
2019-02-23T03:27:07.865Z,0.99
2019-02-23T03:29:36.264Z,0.97
2019-02-23T03:32:04.679Z,0.95
2019-02-23T03:34:33.074Z,0.94
2019-02-23T03:37:01.498Z,0.94
2019-02-23T03:39:30.163Z,0.94
2019-02-23T03:41:58.644Z,0.93
2019-02-23T03:44:27.044Z,0.93
2019-02-23T03:46:55.457Z,0.92
2019-02-23T03:49:23.835Z,0.92
2019-02-23T03:51:52.246Z,0.90
2019-02-23T03:54:20.709Z,0.90
2019-02-23T03:56:49.446Z,0.90
2019-02-23T03:59:17.853Z,0.89
2019-02-23T04:01:46.334Z,0.90
2019-02-23T04:04:14.737Z,0.89
2019-02-23T04:06:43.147Z,0.87
2019-02-23T04:09:11.539Z,0.83
2019-02-23T04:11:40.226Z,0.82
2019-02-23T04:14:08.633Z,0.81
2019-02-23T04:16:37.031Z,0.79
2019-02-23T04:19:05.442Z,0.76
2019-02-23T04:21:33.844Z,0.75
2019-02-23T04:24:02.274Z,0.74
2019-02-23T04:26:30.671Z,0.74
2019-02-23T04:28:59.082Z,0.75
2019-02-23T04:31:27.496Z,0.74
2019-02-23T04:33:55.918Z,0.76
2019-02-23T04:36:24.663Z,0.76
2019-02-23T04:38:53.079Z,0.77
2019-02-23T04:41:21.481Z,0.76
2019-02-23T04:43:49.888Z,0.75
2019-02-23T04:46:18.295Z,0.75
2019-02-23T04:48:46.783Z,0.72
2019-02-23T04:51:15.176Z,0.72
2019-02-23T04:53:43.588Z,0.72
2019-02-23T04:56:11.989Z,0.74
2019-02-23T04:58:40.417Z,0.72
2019-02-23T05:01:08.820Z,0.73
2019-02-23T05:03:37.219Z,0.71
2019-02-23T05:06:05.638Z,0.68
2019-02-23T05:08:34.320Z,0.64
2019-02-23T05:11:02.742Z,0.58
2019-02-23T05:13:31.159Z,0.54
2019-02-23T05:15:59.584Z,0.51
2019-02-23T05:18:27.990Z,0.48
2019-02-23T05:20:56.403Z,0.48
2019-02-23T05:23:25.500Z,0.48
2019-02-23T05:25:53.924Z,0.46
2019-02-23T05:28:22.322Z,0.47
2019-02-23T05:30:50.740Z,0.48
2019-02-23T05:33:19.181Z,0.46
2019-02-23T05:35:47.550Z,0.45
2019-02-23T05:38:15.954Z,0.42
2019-02-23T05:40:44.663Z,0.39
2019-02-23T05:43:13.367Z,0.39
2019-02-23T05:45:41.778Z,0.41
2019-02-23T05:48:10.181Z,0.46
2019-02-23T05:50:38.974Z,0.48
2019-02-23T05:53:07.370Z,0.49
2019-02-23T05:55:36.069Z,0.49
2019-02-23T05:58:04.465Z,0.48
2019-02-23T06:00:32.886Z,0.47
2019-02-23T06:03:01.290Z,0.46
2019-02-23T06:05:29.681Z,0.44
2019-02-23T06:07:58.368Z,0.44
2019-02-23T06:10:27.072Z,0.44
2019-02-23T06:12:55.473Z,0.42
2019-02-23T06:15:24.247Z,0.42
2019-02-23T06:17:52.656Z,0.41
2019-02-23T06:20:21.384Z,0.42
2019-02-23T06:22:49.806Z,0.47
2019-02-23T06:25:18.219Z,0.54
2019-02-23T06:27:46.626Z,0.61
2019-02-23T06:30:18.234Z,0.68
2019-02-23T06:32:45.167Z,0.72
2019-02-23T06:35:13.573Z,0.74
2019-02-23T06:37:42.010Z,0.74
2019-02-23T06:40:11.837Z,0.78
2019-02-23T06:42:40.692Z,0.80
2019-02-23T06:45:11.729Z,0.80
2019-02-23T06:47:40.183Z,0.81
2019-02-23T06:50:09.018Z,0.82
2019-02-23T06:52:37.424Z,0.85
2019-02-23T06:55:06.964Z,0.86
2019-02-23T06:57:35.368Z,0.85
2019-02-23T07:00:06.126Z,0.85
2019-02-23T07:02:34.826Z,0.88
2019-02-23T07:05:08.221Z,0.92
2019-02-23T07:07:39.084Z,0.94
2019-02-23T07:10:18.008Z,0.92
2019-02-23T07:12:47.043Z,0.92
2019-02-23T07:15:15.882Z,0.94
2019-02-23T07:17:44.922Z,0.97
2019-02-23T07:20:13.634Z,1.03
2019-02-23T07:22:42.216Z,1.10
2019-02-23T07:25:11.711Z,1.15
2019-02-23T07:27:40.315Z,1.24
2019-02-23T07:30:11.807Z,1.33
2019-02-23T07:32:40.528Z,1.42
2019-02-23T07:35:09.289Z,1.48
2019-02-23T07:37:37.998Z,1.55
2019-02-23T07:40:11.445Z,1.57
2019-02-23T07:42:39.846Z,1.60
2019-02-23T07:45:10.020Z,1.66
2019-02-23T07:47:38.422Z,1.70
2019-02-23T07:50:12.728Z,1.73
2019-02-23T07:52:41.128Z,1.75
2019-02-23T07:55:09.536Z,1.80
2019-02-23T07:57:37.969Z,1.83
2019-02-23T08:00:12.222Z,1.90
2019-02-23T08:02:42.269Z,1.97
2019-02-23T08:05:10.954Z,2.03
2019-02-23T08:07:40.078Z,2.08
2019-02-23T08:10:10.494Z,2.14
2019-02-23T08:12:39.266Z,2.19
2019-02-23T08:15:10.025Z,2.24
2019-02-23T08:17:38.825Z,2.28
2019-02-23T08:20:14.014Z,2.30
2019-02-23T08:22:42.741Z,2.34
2019-02-23T08:25:13.239Z,2.36
2019-02-23T08:27:41.652Z,2.36
2019-02-23T08:30:15.065Z,2.41
2019-02-23T08:32:43.468Z,2.47
2019-02-23T08:35:11.868Z,2.53
2019-02-23T08:37:40.281Z,2.58
2019-02-23T08:40:13.623Z,2.60
2019-02-23T08:42:42.340Z,2.64
2019-02-23T08:45:11.472Z,2.68
2019-02-23T08:47:39.856Z,2.71
2019-02-23T08:50:14.163Z,2.76
2019-02-23T08:52:49.089Z,2.82
2019-02-23T08:55:14.348Z,2.91
2019-02-23T08:57:42.752Z,2.98
2019-02-23T09:00:14.053Z,3.05
2019-02-23T09:02:42.467Z,3.09
2019-02-23T09:05:11.837Z,3.16
2019-02-23T09:07:40.253Z,3.21
2019-02-23T09:10:11.092Z,3.26
2019-02-23T09:12:39.509Z,3.26
2019-02-23T09:15:09.367Z,3.26
2019-02-23T09:17:37.790Z,3.28
2019-02-23T09:23:00.235Z,3.37
2019-02-23T09:25:26.863Z,3.42
2019-02-23T09:27:55.297Z,3.46
2019-02-23T09:30:23.703Z,3.49
2019-02-23T09:32:52.275Z,3.58
2019-02-23T09:35:20.949Z,3.65
2019-02-23T09:37:49.352Z,3.70
2019-02-23T09:40:19.596Z,3.76
2019-02-23T09:42:48.070Z,3.83
2019-02-23T09:45:16.503Z,3.88
2019-02-23T09:47:44.904Z,3.92
2019-02-23T09:50:13.304Z,3.96
2019-02-23T09:52:42.104Z,4.00
2019-02-23T09:55:10.990Z,4.04
2019-02-23T09:57:39.410Z,4.09
2019-02-23T10:00:11.028Z,4.13
2019-02-23T10:02:39.426Z,4.16
2019-02-23T10:05:10.047Z,4.23
2019-02-23T10:07:38.272Z,4.30
2019-02-23T10:10:11.461Z,4.37
2019-02-23T10:12:39.867Z,4.46
2019-02-23T10:15:12.041Z,4.53
2019-02-23T10:17:40.751Z,4.59
2019-02-23T10:20:13.879Z,4.69
2019-02-23T10:22:42.293Z,4.76
2019-02-23T10:25:10.694Z,4.81
2019-02-23T10:27:39.348Z,4.85
2019-02-23T10:30:13.083Z,4.90
2019-02-23T10:32:41.738Z,4.97
2019-02-23T10:35:11.775Z,5.03
2019-02-23T10:37:40.186Z,5.05
2019-02-23T10:40:10.973Z,5.07
2019-02-23T10:42:39.373Z,5.09
2019-02-23T10:45:10.587Z,5.13
2019-02-23T10:47:38.989Z,5.17
2019-02-23T10:50:10.043Z,5.23
2019-02-23T10:52:38.437Z,5.30
2019-02-23T10:55:14.635Z,5.39
2019-02-23T10:57:43.039Z,5.45
2019-02-23T11:00:22.380Z,5.49
2019-02-23T11:02:50.942Z,5.53
2019-02-23T11:05:20.655Z,5.59
2019-02-23T11:07:49.070Z,5.66
2019-02-23T11:10:18.183Z,5.79
2019-02-23T11:12:46.848Z,5.91
2019-02-23T11:15:18.007Z,6.04
2019-02-23T11:17:46.404Z,6.16
2019-02-23T11:20:16.710Z,6.29
2019-02-23T11:22:45.110Z,6.42
2019-02-23T11:25:15.805Z,6.56
2019-02-23T11:27:44.193Z,6.72
2019-02-23T11:30:14.456Z,6.88
2019-02-23T11:32:42.868Z,7.03
2019-02-23T11:35:13.280Z,7.13
2019-02-23T11:37:41.684Z,7.24
2019-02-23T11:40:12.164Z,7.37
2019-02-23T11:42:40.555Z,7.51
2019-02-23T11:45:10.813Z,7.66
2019-02-23T11:47:39.241Z,7.81
2019-02-23T11:50:13.522Z,7.94
2019-02-23T11:52:42.214Z,8.02
2019-02-23T11:55:12.319Z,8.07
2019-02-23T11:57:40.763Z,8.12
2019-02-23T12:00:12.199Z,8.20
2019-02-23T12:02:51.778Z,8.31
2019-02-23T12:05:11.351Z,8.38
2019-02-23T12:07:39.754Z,8.44
2019-02-23T12:10:15.687Z,8.47
2019-02-23T12:12:44.431Z,8.50
2019-02-23T12:15:12.895Z,8.51
2019-02-23T12:17:41.308Z,8.52
2019-02-23T12:20:11.316Z,8.53
2019-02-23T12:22:39.736Z,8.54
2019-02-23T12:25:09.208Z,8.53
2019-02-23T12:27:37.601Z,8.53
2019-02-23T12:30:08.360Z,8.53
2019-02-23T12:32:45.761Z,8.52
2019-02-23T12:35:14.509Z,8.51
2019-02-23T12:37:42.983Z,8.54
2019-02-23T12:40:11.442Z,8.58
2019-02-23T12:42:39.862Z,8.63
2019-02-23T12:45:10.709Z,8.67
2019-02-23T12:47:39.117Z,8.71
2019-02-23T12:50:10.468Z,8.74
2019-02-23T12:52:39.178Z,8.75
2019-02-23T12:55:10.135Z,8.77
2019-02-23T12:57:38.807Z,8.81
2019-02-23T13:00:15.298Z,8.85
2019-02-23T13:02:42.921Z,8.91
2019-02-23T13:05:11.392Z,9.00
2019-02-23T13:07:40.066Z,9.12
2019-02-23T13:10:11.468Z,9.26
2019-02-23T13:13:03.777Z,9.35
2019-02-23T13:15:38.162Z,9.38
2019-02-23T13:18:18.652Z,9.42
2019-02-23T13:21:02.129Z,9.44
2019-02-23T13:23:54.516Z,9.47
2019-02-23T13:26:23.696Z,9.53
2019-02-23T13:29:19.230Z,9.58
2019-02-23T13:32:05.571Z,9.59
2019-02-23T13:34:37.866Z,9.59
2019-02-23T13:37:11.913Z,9.59
2019-02-23T13:40:01.514Z,9.60
2019-02-23T13:42:41.489Z,9.61
2019-02-23T13:45:25.321Z,9.62
2019-02-23T13:48:14.934Z,9.58
2019-02-23T13:51:04.788Z,9.53
2019-02-23T13:53:57.015Z,9.46
2019-02-23T13:56:43.384Z,9.40
2019-02-23T13:59:34.439Z,9.39
2019-02-23T14:02:28.396Z,9.37
2019-02-23T14:05:12.261Z,9.30
2019-02-23T14:08:00.500Z,9.26
2019-02-23T14:10:31.963Z,9.30
2019-02-23T14:13:15.433Z,9.33
2019-02-23T14:16:11.092Z,9.33
2019-02-23T14:18:57.699Z,9.32
2019-02-23T14:21:53.602Z,9.33
2019-02-23T14:24:49.786Z,9.35
2019-02-23T14:27:47.261Z,9.35
2019-02-23T14:30:27.020Z,9.39
2019-02-23T14:33:13.081Z,9.59
2019-02-23T14:36:01.083Z,9.80
2019-02-23T14:39:06.582Z,9.93
2019-02-23T14:41:57.177Z,10.02
2019-02-23T14:44:31.788Z,10.04
2019-02-23T14:47:09.313Z,10.00
2019-02-23T14:50:00.346Z,9.96
2019-02-23T14:52:49.693Z,9.89
2019-02-23T14:55:27.164Z,9.86
2019-02-23T14:58:13.525Z,9.89
2019-02-23T15:00:47.513Z,9.96
2019-02-23T15:03:33.688Z,10.20
2019-02-23T15:06:17.330Z,10.36
2019-02-23T15:08:54.836Z,10.38
2019-02-23T15:11:53.777Z,10.35
2019-02-23T15:14:46.778Z,10.32
2019-02-23T15:17:26.860Z,10.23
2019-02-23T15:20:12.508Z,10.17
2019-02-23T15:22:59.281Z,10.16
2019-02-23T15:25:36.624Z,10.15
2019-02-23T15:28:30.505Z,10.08
2019-02-23T15:30:58.658Z,9.94
2019-02-23T15:33:42.102Z,9.79
2019-02-23T15:36:34.858Z,9.80
2019-02-23T15:39:12.755Z,9.98
2019-02-23T15:42:08.813Z,10.28
2019-02-23T15:44:52.071Z,10.60
2019-02-23T15:47:26.111Z,10.95
2019-02-23T15:49:55.958Z,11.22
2019-02-23T15:52:24.483Z,11.18
2019-02-23T15:54:53.265Z,10.87
2019-02-23T15:57:22.255Z,10.49
2019-02-23T15:59:50.768Z,10.16
2019-02-23T16:02:19.289Z,9.88
2019-02-23T16:04:47.743Z,9.65
2019-02-23T16:07:16.428Z,9.42
2019-02-23T16:09:45.243Z,9.20
2019-02-23T16:12:13.694Z,9.00
2019-02-23T16:14:42.112Z,8.81
2019-02-23T16:17:10.560Z,8.66
2019-02-23T16:19:38.953Z,8.50
2019-02-23T16:22:07.411Z,8.35
2019-02-23T16:24:35.969Z,8.24
2019-02-23T16:27:04.440Z,8.12
2019-02-23T16:29:33.176Z,8.00
2019-02-23T16:32:01.973Z,7.89
2019-02-23T16:34:30.457Z,7.79
2019-02-23T16:36:58.914Z,7.73
2019-02-23T16:39:27.335Z,7.65
2019-02-23T16:41:55.749Z,7.57
2019-02-23T16:44:24.188Z,7.48
2019-02-23T16:46:52.626Z,7.42
2019-02-23T16:49:21.638Z,7.37
2019-02-23T16:51:50.072Z,7.31
2019-02-23T16:54:18.508Z,7.28
2019-02-23T16:56:46.983Z,7.25
2019-02-23T16:59:15.775Z,7.19
2019-02-23T17:01:44.204Z,7.15
2019-02-23T17:04:12.608Z,7.10
2019-02-23T17:06:41.103Z,7.07
2019-02-23T17:09:10.529Z,7.03
2019-02-23T17:11:39.195Z,6.97
2019-02-23T17:14:07.793Z,6.93
2019-02-23T17:16:36.232Z,6.89
2019-02-23T17:19:07.003Z,6.87
2019-02-23T17:21:35.489Z,6.83
2019-02-23T17:24:03.945Z,6.79
2019-02-23T17:26:32.374Z,6.75
2019-02-23T17:29:00.881Z,6.73
2019-02-23T17:31:29.389Z,6.72
2019-02-23T17:33:59.513Z,6.71
2019-02-23T17:36:28.216Z,6.70
2019-02-23T17:38:56.655Z,6.68
2019-02-23T17:41:25.078Z,6.66
2019-02-23T17:43:54.227Z,6.66
2019-02-23T17:46:22.797Z,6.68
2019-02-23T17:48:51.199Z,6.69
2019-02-23T17:51:19.626Z,6.67
2019-02-23T17:53:48.291Z,6.63
2019-02-23T17:56:16.729Z,6.57
2019-02-23T17:58:45.129Z,6.52
2019-02-23T18:01:13.529Z,6.50
2019-02-23T18:03:42.212Z,6.49
2019-02-23T18:06:10.612Z,6.47
2019-02-23T18:08:39.037Z,6.43
2019-02-23T18:11:07.762Z,6.40
2019-02-23T18:13:36.207Z,6.40
2019-02-23T18:16:04.623Z,6.39
2019-02-23T18:18:33.051Z,6.35
2019-02-23T18:21:02.001Z,6.29
2019-02-23T18:23:30.380Z,6.23
2019-02-23T18:25:58.803Z,6.19
2019-02-23T18:28:27.204Z,6.17
2019-02-23T18:30:55.649Z,6.15
2019-02-23T18:33:24.431Z,6.14
2019-02-23T18:35:53.271Z,6.12
2019-02-23T18:38:21.765Z,6.11
